Time;durP1;ratioP1;P1;durP2;ratioP2;P2;SDS_P1;SDS_P2;PMS_P1;PMS_P2;Temp;Humidity;BMP_temperature;BMP_pressure;BME280_temperature;BME280_humidity;BME280_pressure;Samples;Min_cycle;Max_cycle;Signal;HPM_P1;HPM_P2
2023/06/23 00:00:00;;;;;;;;;;;27.10;45.50;;;;;;1584390;73;1934;-61
2023/06/23 00:02:01;;;;;;;;;;;27.10;45.70;;;;;;1596000;73;1705;-59
2023/06/23 00:04:03;;;;;;;;;;;27.00;45.70;;;;;;1606931;73;723;-61
2023/06/23 00:06:05;;;;;;;;;;;27.00;45.60;;;;;;1595526;73;780;-61
2023/06/23 00:08:07;;;;;;;;;;;27.00;45.50;;;;;;1591198;73;1147;-62
2023/06/23 00:10:10;;;;;;;;;;;27.00;45.10;;;;;;1595629;73;797;-61
2023/06/23 00:12:12;;;;;;;;;;;27.00;45.20;;;;;;1590960;73;767;-60
2023/06/23 00:14:14;;;;;;;;;;;27.00;45.10;;;;;;1612374;73;693;-60
2023/06/23 00:16:15;;;;;;;;;;;27.00;45.00;;;;;;1601613;73;1769;-61
2023/06/23 00:18:17;;;;;;;;;;;27.00;45.20;;;;;;1604346;73;1153;-61
2023/06/23 00:20:19;;;;;;;;;;;27.00;45.20;;;;;;1594694;73;1936;-61
2023/06/23 00:22:21;;;;;;;;;;;27.00;44.70;;;;;;1610736;73;779;-61
2023/06/23 00:24:23;;;;;;;;;;;27.00;44.80;;;;;;1597690;73;756;-61
2023/06/23 00:26:25;;;;;;;;;;;27.00;45.10;;;;;;1593366;73;700;-61
2023/06/23 00:28:27;;;;;;;;;;;26.90;44.40;;;;;;1595935;73;1541;-61
2023/06/23 00:30:29;;;;;;;;;;;27.00;45.10;;;;;;1607401;73;753;-61
2023/06/23 00:32:30;;;;;;;;;;;26.90;43.70;;;;;;1606663;73;692;-61
2023/06/23 00:34:32;;;;;;;;;;;26.90;43.50;;;;;;1604042;73;801;-61
2023/06/23 00:36:34;;;;;;;;;;;26.80;43.70;;;;;;1608137;73;800;-61
2023/06/23 00:38:36;;;;;;;;;;;26.80;43.60;;;;;;1608657;73;1158;-61
2023/06/23 00:40:38;;;;;;;;;;;26.80;43.40;;;;;;1608177;73;1944;-61
2023/06/23 00:42:52;;;;;;;;;;;26.80;43.40;;;;;;1592265;73;1487;-61
2023/06/23 00:44:53;;;;;;;;;;;26.70;43.70;;;;;;1588885;72;1625;-61
2023/06/23 00:46:55;;;;;;;;;;;26.70;43.60;;;;;;1601417;73;784;-62
2023/06/23 00:48:56;;;;;;;;;;;26.70;43.60;;;;;;1599226;73;1108;-61
2023/06/23 00:50:58;;;;;;;;;;;26.70;42.90;;;;;;1604736;73;950;-61
2023/06/23 00:53:00;;;;;;;;;;;26.70;43.30;;;;;;1604630;72;765;-60
2023/06/23 00:55:02;;;;;;;;;;;26.70;42.80;;;;;;1592158;73;699;-61
2023/06/23 00:57:04;;;;;;;;;;;26.80;42.80;;;;;;1603926;72;1536;-61
2023/06/23 00:59:06;;;;;;;;;;;26.70;42.50;;;;;;1594842;72;1141;-60
2023/06/23 01:01:08;;;;;;;;;;;26.70;42.50;;;;;;1596399;73;1947;-60
2023/06/23 01:03:10;;;;;;;;;;;26.70;42.30;;;;;;1605813;73;826;-61
2023/06/23 01:05:12;;;;;;;;;;;26.70;42.30;;;;;;1601307;73;833;-61
2023/06/23 01:07:21;;;;;;;;;;;26.70;42.30;;;;;;1597668;73;761;-61
2023/06/23 01:09:29;;;;;;;;;;;26.60;42.10;;;;;;1592021;73;1603;-61
2023/06/23 01:11:38;;;;;;;;;;;26.60;42.10;;;;;;1590474;73;1959;-61
2023/06/23 01:13:41;;;;;;;;;;;26.60;42.30;;;;;;1590858;73;1444;-61
2023/06/23 01:15:45;;;;;;;;;;;26.60;42.20;;;;;;1590327;73;715;-61
2023/06/23 01:17:48;;;;;;;;;;;26.60;42.60;;;;;;1605679;73;1169;-61
2023/06/23 01:19:57;;;;;;;;;;;26.50;42.20;;;;;;1602156;73;1927;-61
2023/06/23 01:22:13;;;;;;;;;;;26.60;42.30;;;;;;1599898;73;965;-60
2023/06/23 01:24:19;;;;;;;;;;;26.60;42.30;;;;;;1606649;72;763;-61
2023/06/23 01:26:29;;;;;;;;;;;26.60;42.50;;;;;;1599427;73;1638;-61
2023/06/23 01:28:32;;;;;;;;;;;26.50;42.30;;;;;;1587123;73;1888;-61
2023/06/23 01:30:34;;;;;;;;;;;26.60;42.20;;;;;;1588287;73;716;-61
2023/06/23 01:32:38;;;;;;;;;;;26.60;42.10;;;;;;1594275;73;955;-61
2023/06/23 01:34:44;;;;;;;;;;;26.50;42.10;;;;;;1607950;73;699;-60
2023/06/23 01:36:49;;;;;;;;;;;26.50;42.00;;;;;;1605867;73;753;-61
2023/06/23 01:38:52;;;;;;;;;;;26.50;41.80;;;;;;1596088;73;1668;-60
2023/06/23 01:40:55;;;;;;;;;;;26.50;42.00;;;;;;1606218;73;1902;-61
2023/06/23 01:42:57;;;;;;;;;;;26.50;42.00;;;;;;1597114;73;820;-60
2023/06/23 01:45:00;;;;;;;;;;;26.60;42.10;;;;;;1603120;73;811;-61
2023/06/23 01:47:02;;;;;;;;;;;26.50;42.00;;;;;;1619461;73;744;-60
2023/06/23 01:49:10;;;;;;;;;;;26.60;42.00;;;;;;1612661;73;1145;-61
2023/06/23 01:51:11;;;;;;;;;;;26.60;42.00;;;;;;1597003;73;1560;-60
2023/06/23 01:53:13;;;;;;;;;;;26.50;41.90;;;;;;1596221;72;1486;-60
2023/06/23 01:55:16;;;;;;;;;;;26.50;42.00;;;;;;1615113;73;922;-61
2023/06/23 01:57:17;;;;;;;;;;;26.60;42.00;;;;;;1587560;72;804;-60
2023/06/23 01:59:20;;;;;;;;;;;26.60;42.00;;;;;;1593060;73;1125;-61
2023/06/23 02:01:21;;;;;;;;;;;26.70;42.00;;;;;;1596516;73;1937;-61
2023/06/23 02:03:23;;;;;;;;;;;26.60;42.10;;;;;;1594738;73;726;-61
2023/06/23 02:05:25;;;;;;;;;;;26.60;42.00;;;;;;1607649;73;712;-62
2023/06/23 02:07:27;;;;;;;;;;;26.60;42.10;;;;;;1603845;73;1590;-61
2023/06/23 02:09:30;;;;;;;;;;;26.60;42.10;;;;;;1604469;73;1058;-60
2023/06/23 02:11:32;;;;;;;;;;;26.50;42.10;;;;;;1604406;73;680;-62
2023/06/23 02:13:35;;;;;;;;;;;26.50;42.10;;;;;;1611890;73;898;-61
2023/06/23 02:15:37;;;;;;;;;;;26.50;42.10;;;;;;1605914;73;808;-61
2023/06/23 02:17:39;;;;;;;;;;;26.50;42.20;;;;;;1606955;73;1116;-61
2023/06/23 02:19:42;;;;;;;;;;;26.50;42.20;;;;;;1596934;73;1917;-61
2023/06/23 02:21:44;;;;;;;;;;;26.50;42.20;;;;;;1581103;73;1767;-61
2023/06/23 02:23:46;;;;;;;;;;;26.50;42.30;;;;;;1607667;72;728;-61
2023/06/23 02:25:48;;;;;;;;;;;26.50;42.30;;;;;;1592441;73;807;-61
2023/06/23 02:27:50;;;;;;;;;;;26.50;42.10;;;;;;1604917;73;1124;-60
2023/06/23 02:29:52;;;;;;;;;;;26.40;42.00;;;;;;1597895;73;760;-62
2023/06/23 02:31:54;;;;;;;;;;;26.50;42.10;;;;;;1598488;73;803;-62
2023/06/23 02:33:56;;;;;;;;;;;26.40;42.20;;;;;;1596082;73;861;-61
2023/06/23 02:35:58;;;;;;;;;;;26.40;42.20;;;;;;1603584;73;1581;-61
2023/06/23 02:38:02;;;;;;;;;;;26.40;42.20;;;;;;1616847;73;1154;-62
2023/06/23 02:40:16;;;;;;;;;;;26.50;42.10;;;;;;1602454;73;1912;-61
2023/06/23 02:42:14;;;;;;;;;;;26.50;42.50;;;;;;1602464;73;1657;-61
2023/06/23 02:44:16;;;;;;;;;;;26.40;42.60;;;;;;1601794;73;840;-61
2023/06/23 02:46:19;;;;;;;;;;;26.50;42.30;;;;;;1594175;73;751;-61
2023/06/23 02:48:22;;;;;;;;;;;26.50;42.30;;;;;;1595197;73;1131;-62
2023/06/23 02:50:25;;;;;;;;;;;26.40;42.50;;;;;;1598953;73;1525;-62
2023/06/23 02:52:28;;;;;;;;;;;26.40;42.60;;;;;;1606292;72;961;-61
2023/06/23 02:54:31;;;;;;;;;;;26.40;42.60;;;;;;1598453;72;797;-62
2023/06/23 02:56:33;;;;;;;;;;;26.40;42.60;;;;;;1587856;73;691;-62
2023/06/23 02:58:35;;;;;;;;;;;26.40;42.50;;;;;;1608548;73;1178;-62
2023/06/23 03:00:37;;;;;;;;;;;26.40;42.60;;;;;;1605001;73;1926;-62
2023/06/23 03:02:42;;;;;;;;;;;26.40;42.60;;;;;;1584183;73;757;-61
2023/06/23 03:04:45;;;;;;;;;;;26.40;42.80;;;;;;1596750;73;1586;-61
2023/06/23 03:06:47;;;;;;;;;;;26.40;42.80;;;;;;1620872;73;761;-61
2023/06/23 03:08:49;;;;;;;;;;;26.30;43.00;;;;;;1606991;73;1155;-62
2023/06/23 03:10:52;;;;;;;;;;;26.30;43.00;;;;;;1614973;73;720;-62
2023/06/23 03:12:53;;;;;;;;;;;26.40;43.20;;;;;;1603322;73;750;-62
2023/06/23 03:14:55;;;;;;;;;;;26.40;43.00;;;;;;1594865;73;789;-62
2023/06/23 03:17:07;;;;;;;;;;;26.40;43.30;;;;;;1605646;73;786;-60
2023/06/23 03:19:11;;;;;;;;;;;26.40;43.10;;;;;;1604095;73;1175;-61
2023/06/23 03:21:13;;;;;;;;;;;26.40;43.30;;;;;;1608329;73;2087;-61
2023/06/23 03:23:14;;;;;;;;;;;26.40;43.60;;;;;;1609278;72;771;-61
2023/06/23 03:25:17;;;;;;;;;;;26.40;43.40;;;;;;1605664;73;772;-61
2023/06/23 03:27:19;;;;;;;;;;;26.40;43.40;;;;;;1594294;73;760;-61
2023/06/23 03:29:21;;;;;;;;;;;26.40;43.50;;;;;;1604856;73;1130;-61
2023/06/23 03:31:23;;;;;;;;;;;26.40;43.60;;;;;;1606704;73;1492;-61
2023/06/23 03:33:25;;;;;;;;;;;26.40;43.60;;;;;;1608245;73;790;-61
2023/06/23 03:35:29;;;;;;;;;;;26.30;43.90;;;;;;1600181;73;763;-61
2023/06/23 03:37:31;;;;;;;;;;;26.30;43.80;;;;;;1605959;73;693;-61
2023/06/23 03:39:34;;;;;;;;;;;26.30;43.80;;;;;;1595568;73;1130;-61
2023/06/23 03:41:36;;;;;;;;;;;26.30;43.90;;;;;;1617171;73;1937;-61
2023/06/23 03:43:39;;;;;;;;;;;26.30;43.90;;;;;;1602956;73;677;-61
2023/06/23 03:45:41;;;;;;;;;;;26.30;43.90;;;;;;1599508;73;1567;-61
2023/06/23 03:47:43;;;;;;;;;;;26.30;43.90;;;;;;1603673;73;1258;-61
2023/06/23 03:49:46;;;;;;;;;;;26.30;44.20;;;;;;1600331;73;711;-61
2023/06/23 03:51:48;;;;;;;;;;;26.20;44.30;;;;;;1611530;73;771;-61
2023/06/23 03:53:50;;;;;;;;;;;26.20;44.30;;;;;;1595436;72;730;-61
2023/06/23 03:55:52;;;;;;;;;;;26.20;44.30;;;;;;1619033;73;688;-61
2023/06/23 03:57:54;;;;;;;;;;;26.20;44.40;;;;;;1601224;73;1182;-61
2023/06/23 03:59:56;;;;;;;;;;;26.20;44.40;;;;;;1594912;73;1576;-60
2023/06/23 04:01:58;;;;;;;;;;;26.20;44.40;;;;;;1612101;73;1928;-61
2023/06/23 04:04:00;;;;;;;;;;;26.20;44.60;;;;;;1598588;73;657;-61
2023/06/23 04:06:02;;;;;;;;;;;26.20;44.50;;;;;;1597016;73;780;-61
2023/06/23 04:08:04;;;;;;;;;;;26.10;44.60;;;;;;1602399;73;1147;-61
2023/06/23 04:10:06;;;;;;;;;;;26.10;44.50;;;;;;1612597;73;727;-60
2023/06/23 04:12:10;;;;;;;;;;;26.10;44.60;;;;;;1602591;73;787;-61
2023/06/23 04:14:12;;;;;;;;;;;26.10;44.60;;;;;;1599005;73;1735;-61
2023/06/23 04:16:13;;;;;;;;;;;26.10;44.70;;;;;;1613033;73;723;-61
2023/06/23 04:18:15;;;;;;;;;;;26.00;44.90;;;;;;1611814;73;1143;-61
2023/06/23 04:20:17;;;;;;;;;;;26.00;44.80;;;;;;1595618;73;766;-61
2023/06/23 04:22:19;;;;;;;;;;;26.00;44.80;;;;;;1593652;73;1936;-61
2023/06/23 04:24:21;;;;;;;;;;;26.00;44.90;;;;;;1605082;72;712;-59
2023/06/23 04:26:26;;;;;;;;;;;26.00;45.00;;;;;;1595047;73;771;-60
2023/06/23 04:28:28;;;;;;;;;;;26.00;45.10;;;;;;1605148;73;1621;-60
2023/06/23 04:30:30;;;;;;;;;;;26.00;45.30;;;;;;1591053;73;803;-60
2023/06/23 04:32:32;;;;;;;;;;;26.00;45.20;;;;;;1597576;73;699;-61
2023/06/23 04:34:34;;;;;;;;;;;26.00;45.30;;;;;;1608736;73;709;-61
2023/06/23 04:36:40;;;;;;;;;;;26.00;45.40;;;;;;1603087;73;764;-62
2023/06/23 04:38:53;;;;;;;;;;;26.00;45.60;;;;;;1605796;73;1917;-60
2023/06/23 04:40:56;;;;;;;;;;;26.00;45.70;;;;;;1597645;73;1928;-60
2023/06/23 04:43:00;;;;;;;;;;;26.00;45.90;;;;;;1585337;73;1583;-60
2023/06/23 04:45:02;;;;;;;;;;;26.10;46.10;;;;;;1594326;73;1770;-61
2023/06/23 04:47:04;;;;;;;;;;;26.10;46.30;;;;;;1611078;73;794;-61
2023/06/23 04:49:08;;;;;;;;;;;26.00;46.30;;;;;;1610201;73;1173;-61
2023/06/23 04:51:10;;;;;;;;;;;26.10;46.20;;;;;;1605862;73;817;-60
2023/06/23 04:53:13;;;;;;;;;;;26.10;46.40;;;;;;1599872;72;749;-61
2023/06/23 04:55:15;;;;;;;;;;;26.10;46.60;;;;;;1593883;73;790;-61
2023/06/23 04:57:18;;;;;;;;;;;26.00;46.80;;;;;;1610906;73;1400;-60
2023/06/23 04:59:20;;;;;;;;;;;26.00;46.70;;;;;;1600790;73;1150;-60
2023/06/23 05:01:22;;;;;;;;;;;26.00;46.80;;;;;;1592705;73;1946;-60
2023/06/23 05:03:24;;;;;;;;;;;26.00;46.80;;;;;;1592805;73;731;-61
2023/06/23 05:05:27;;;;;;;;;;;26.00;46.80;;;;;;1603356;73;755;-61
2023/06/23 05:07:29;;;;;;;;;;;26.00;47.00;;;;;;1598549;73;864;-61
2023/06/23 05:09:31;;;;;;;;;;;26.00;47.00;;;;;;1607136;73;1148;-62
2023/06/23 05:11:33;;;;;;;;;;;25.90;46.40;;;;;;1563684;74;1753;-60
2023/06/23 05:13:35;;;;;;;;;;;25.90;46.30;;;;;;1608047;73;749;-60
2023/06/23 05:15:37;;;;;;;;;;;26.00;46.90;;;;;;1593994;73;710;-60
2023/06/23 05:17:39;;;;;;;;;;;25.90;46.30;;;;;;1594867;73;1146;-60
2023/06/23 05:19:42;;;;;;;;;;;25.90;46.40;;;;;;1591150;73;821;-61
2023/06/23 05:21:44;;;;;;;;;;;25.90;46.40;;;;;;1592897;73;1932;-60
2023/06/23 05:23:46;;;;;;;;;;;25.90;46.50;;;;;;1609004;72;1510;-62
2023/06/23 05:25:47;;;;;;;;;;;25.90;46.50;;;;;;1594011;73;794;-61
2023/06/23 05:27:52;;;;;;;;;;;25.80;46.60;;;;;;1604008;73;1189;-61
2023/06/23 05:29:55;;;;;;;;;;;25.80;46.60;;;;;;1596601;73;1665;-61
2023/06/23 05:31:56;;;;;;;;;;;25.80;46.60;;;;;;1604619;73;699;-62
2023/06/23 05:33:58;;;;;;;;;;;25.90;46.60;;;;;;1598441;73;791;-61
2023/06/23 05:36:00;;;;;;;;;;;25.80;46.80;;;;;;1595991;73;682;-61
2023/06/23 05:38:02;;;;;;;;;;;25.80;46.80;;;;;;1612327;73;1395;-61
2023/06/23 05:40:04;;;;;;;;;;;25.80;46.90;;;;;;1610501;73;699;-61
2023/06/23 05:42:06;;;;;;;;;;;25.80;46.90;;;;;;1589176;73;1921;-61
2023/06/23 05:44:08;;;;;;;;;;;25.90;46.90;;;;;;1607608;73;651;-60
2023/06/23 05:46:12;;;;;;;;;;;25.80;47.00;;;;;;1605458;73;786;-61
2023/06/23 05:48:27;;;;;;;;;;;25.90;47.00;;;;;;1601464;73;1157;-61
2023/06/23 05:50:34;;;;;;;;;;;25.90;47.20;;;;;;1595108;73;1944;-62
2023/06/23 05:52:35;;;;;;;;;;;25.90;47.10;;;;;;1603472;72;1550;-61
2023/06/23 05:54:38;;;;;;;;;;;25.90;47.10;;;;;;1612436;72;745;-61
2023/06/23 05:56:41;;;;;;;;;;;25.90;47.00;;;;;;1604044;73;744;-61
2023/06/23 05:58:45;;;;;;;;;;;25.80;47.00;;;;;;1599485;73;1656;-61
2023/06/23 06:00:54;;;;;;;;;;;25.80;46.90;;;;;;1602364;73;683;-60
2023/06/23 06:02:56;;;;;;;;;;;25.80;47.00;;;;;;1598138;73;1949;-60
2023/06/23 06:04:59;;;;;;;;;;;25.80;47.00;;;;;;1582576;73;773;-62
2023/06/23 06:07:01;;;;;;;;;;;25.70;46.90;;;;;;1601228;73;1514;-60
2023/06/23 06:09:03;;;;;;;;;;;25.70;46.90;;;;;;1596777;73;1150;-60
2023/06/23 06:11:05;;;;;;;;;;;25.70;46.80;;;;;;1605396;73;773;-60
2023/06/23 06:13:07;;;;;;;;;;;25.70;46.80;;;;;;1608433;73;776;-62
2023/06/23 06:15:09;;;;;;;;;;;25.70;46.70;;;;;;1598452;73;792;-60
2023/06/23 06:17:11;;;;;;;;;;;25.70;46.70;;;;;;1592229;73;693;-60
2023/06/23 06:19:13;;;;;;;;;;;25.70;46.70;;;;;;1593986;73;1119;-61
2023/06/23 06:21:15;;;;;;;;;;;25.60;46.70;;;;;;1614721;73;1924;-62
2023/06/23 06:23:17;;;;;;;;;;;25.50;47.10;;;;;;1609687;72;721;-60
2023/06/23 06:25:19;;;;;;;;;;;25.50;47.30;;;;;;1596416;73;739;-59
2023/06/23 06:27:22;;;;;;;;;;;25.50;47.40;;;;;;1602248;73;731;-59
2023/06/23 06:29:25;;;;;;;;;;;25.50;47.50;;;;;;1598104;73;1128;-60
2023/06/23 06:31:27;;;;;;;;;;;25.50;47.50;;;;;;1595666;73;684;-59
2023/06/23 06:33:29;;;;;;;;;;;25.40;47.60;;;;;;1578358;75;864;-60
2023/06/23 06:35:31;;;;;;;;;;;25.50;47.60;;;;;;1561223;75;1513;-60
2023/06/23 06:37:37;;;;;;;;;;;25.40;47.60;;;;;;1532292;76;743;-60
2023/06/23 06:39:39;;;;;;;;;;;25.50;47.60;;;;;;1533582;76;765;-60
2023/06/23 06:41:41;;;;;;;;;;;25.40;47.40;;;;;;1554149;75;1939;-59
2023/06/23 06:43:44;;;;;;;;;;;25.30;47.60;;;;;;1554894;75;800;-60
2023/06/23 06:45:46;;;;;;;;;;;25.30;47.80;;;;;;1542031;75;785;-60
2023/06/23 06:47:47;;;;;;;;;;;25.20;48.10;;;;;;1561526;75;1140;-59
2023/06/23 06:49:49;;;;;;;;;;;25.10;48.40;;;;;;1553461;75;1552;-59
2023/06/23 06:51:52;;;;;;;;;;;25.00;48.70;;;;;;1535200;76;784;-59
2023/06/23 06:53:53;;;;;;;;;;;25.00;48.90;;;;;;1547576;76;723;-60
2023/06/23 06:55:55;;;;;;;;;;;25.00;48.90;;;;;;1523174;76;1028;-60
2023/06/23 06:57:57;;;;;;;;;;;25.00;48.80;;;;;;1549611;75;1174;-59
2023/06/23 06:59:59;;;;;;;;;;;25.00;48.90;;;;;;1533772;76;819;-59
2023/06/23 07:02:01;;;;;;;;;;;25.00;48.80;;;;;;1553101;75;1938;-60
2023/06/23 07:04:04;;;;;;;;;;;25.00;48.70;;;;;;1529700;76;1788;-60
2023/06/23 07:06:06;;;;;;;;;;;25.10;48.50;;;;;;1577344;75;933;-60
2023/06/23 07:08:08;;;;;;;;;;;25.10;48.60;;;;;;1538102;76;1098;-60
2023/06/23 07:10:10;;;;;;;;;;;25.00;48.60;;;;;;1503530;77;766;-59
2023/06/23 07:12:12;;;;;;;;;;;25.00;48.90;;;;;;1595360;73;714;-58
2023/06/23 07:14:14;;;;;;;;;;;24.80;49.00;;;;;;1598332;73;738;-61
2023/06/23 07:16:16;;;;;;;;;;;24.90;49.00;;;;;;1593979;73;1436;-60
2023/06/23 07:18:18;;;;;;;;;;;25.00;48.80;;;;;;1605195;73;1131;-60
2023/06/23 07:20:20;;;;;;;;;;;24.90;49.10;;;;;;1607584;73;782;-60
2023/06/23 07:22:21;;;;;;;;;;;24.90;48.90;;;;;;1596436;73;1935;-60
2023/06/23 07:24:23;;;;;;;;;;;25.00;48.90;;;;;;1585000;73;723;-59
2023/06/23 07:26:25;;;;;;;;;;;25.00;48.90;;;;;;1606934;73;752;-59
2023/06/23 07:28:27;;;;;;;;;;;24.80;49.00;;;;;;1584662;73;1168;-59
2023/06/23 07:30:29;;;;;;;;;;;24.90;48.90;;;;;;1602321;73;1188;-60
2023/06/23 07:32:31;;;;;;;;;;;25.00;48.80;;;;;;1593144;73;791;-59
2023/06/23 07:34:33;;;;;;;;;;;24.90;48.90;;;;;;1604974;73;772;-60
2023/06/23 07:36:35;;;;;;;;;;;24.90;48.70;;;;;;1607992;73;725;-61
2023/06/23 07:38:37;;;;;;;;;;;24.90;48.90;;;;;;1599386;73;1126;-60
2023/06/23 07:40:38;;;;;;;;;;;24.90;48.90;;;;;;1596955;73;648;-59
2023/06/23 07:42:40;;;;;;;;;;;24.80;48.90;;;;;;1604083;73;1944;-59
2023/06/23 07:44:43;;;;;;;;;;;24.80;49.00;;;;;;1588677;73;1518;-60
2023/06/23 07:46:45;;;;;;;;;;;24.80;49.00;;;;;;1605414;73;900;-59
2023/06/23 07:48:46;;;;;;;;;;;24.80;48.90;;;;;;1605892;73;1120;-60
2023/06/23 07:50:48;;;;;;;;;;;24.80;48.50;;;;;;1615730;73;712;-59
2023/06/23 07:52:54;;;;;;;;;;;24.90;48.50;;;;;;1615353;73;826;-59
2023/06/23 07:54:56;;;;;;;;;;;24.90;48.30;;;;;;1610136;73;724;-59
2023/06/23 07:56:58;;;;;;;;;;;24.90;48.40;;;;;;1587654;73;809;-59
2023/06/23 07:59:00;;;;;;;;;;;25.00;48.20;;;;;;1599322;73;1529;-59
2023/06/23 08:01:02;;;;;;;;;;;24.90;48.30;;;;;;1596940;72;663;-60
2023/06/23 08:03:04;;;;;;;;;;;25.00;48.20;;;;;;1601829;73;1909;-60
2023/06/23 08:05:06;;;;;;;;;;;24.90;48.20;;;;;;1594008;73;775;-59
2023/06/23 08:07:08;;;;;;;;;;;25.00;48.00;;;;;;1601779;73;748;-59
2023/06/23 08:09:10;;;;;;;;;;;24.90;48.40;;;;;;1598185;73;1125;-59
2023/06/23 08:11:12;;;;;;;;;;;24.80;48.50;;;;;;1600255;73;730;-59
2023/06/23 08:13:14;;;;;;;;;;;24.60;48.60;;;;;;1577069;74;1580;-60
2023/06/23 08:15:15;;;;;;;;;;;24.70;48.50;;;;;;1561460;75;770;-60
2023/06/23 08:17:17;;;;;;;;;;;24.80;47.90;;;;;;1532525;76;687;-58
2023/06/23 08:19:22;;;;;;;;;;;24.70;48.10;;;;;;1558346;74;1099;-59
2023/06/23 08:21:23;;;;;;;;;;;24.60;48.40;;;;;;1551715;74;1613;-60
2023/06/23 08:23:25;;;;;;;;;;;24.60;48.20;;;;;;1530487;76;1929;-60
2023/06/23 08:25:27;;;;;;;;;;;24.60;48.20;;;;;;1562978;75;755;-60
2023/06/23 08:27:28;;;;;;;;;;;24.80;47.90;;;;;;1558314;75;1326;-59
2023/06/23 08:29:30;;;;;;;;;;;24.80;48.20;;;;;;1565435;75;1101;-59
2023/06/23 08:31:32;;;;;;;;;;;24.80;47.90;;;;;;1561827;74;676;-59
2023/06/23 08:33:34;;;;;;;;;;;24.90;47.60;;;;;;1551260;75;760;-60
2023/06/23 08:35:36;;;;;;;;;;;24.90;47.70;;;;;;1533551;76;725;-60
2023/06/23 08:37:38;;;;;;;;;;;24.90;47.50;;;;;;1565637;75;1079;-59
2023/06/23 08:39:40;;;;;;;;;;;24.90;47.60;;;;;;1557269;75;658;-60
2023/06/23 08:41:42;;;;;;;;;;;24.90;47.80;;;;;;1565949;75;1553;-60
2023/06/23 08:43:45;;;;;;;;;;;24.80;47.90;;;;;;1562440;75;2007;-60
2023/06/23 08:45:47;;;;;;;;;;;24.90;47.70;;;;;;1538565;76;690;-60
2023/06/23 08:47:51;;;;;;;;;;;25.00;47.10;;;;;;1557443;75;1098;-59
2023/06/23 08:49:52;;;;;;;;;;;25.00;47.30;;;;;;1528122;76;701;-61
2023/06/23 08:51:54;;;;;;;;;;;25.00;46.90;;;;;;1539749;76;721;-59
2023/06/23 08:53:56;;;;;;;;;;;25.10;47.00;;;;;;1507473;78;814;-59
2023/06/23 08:55:58;;;;;;;;;;;25.10;46.80;;;;;;1593466;73;1362;-60
2023/06/23 08:58:01;;;;;;;;;;;25.00;46.50;;;;;;1592310;73;1148;-59
2023/06/23 09:00:04;;;;;;;;;;;25.10;46.00;;;;;;1599143;73;679;-59
2023/06/23 09:02:06;;;;;;;;;;;24.90;46.60;;;;;;1592217;73;1892;-59
2023/06/23 09:04:08;;;;;;;;;;;24.90;46.70;;;;;;1590553;73;620;-59
2023/06/23 09:06:09;;;;;;;;;;;24.70;47.20;;;;;;1605799;73;656;-60
2023/06/23 09:08:11;;;;;;;;;;;24.80;46.80;;;;;;1606389;73;1120;-60
2023/06/23 09:10:13;;;;;;;;;;;24.90;46.80;;;;;;1592511;73;1624;-59
2023/06/23 09:12:16;;;;;;;;;;;24.90;46.50;;;;;;1582528;73;789;-59
2023/06/23 09:14:18;;;;;;;;;;;25.00;46.40;;;;;;1580269;73;705;-60
2023/06/23 09:16:20;;;;;;;;;;;24.90;46.90;;;;;;1597737;73;764;-60
2023/06/23 09:18:22;;;;;;;;;;;24.90;47.00;;;;;;1589472;74;1120;-59
2023/06/23 09:20:24;;;;;;;;;;;24.90;46.80;;;;;;1593624;73;741;-60
2023/06/23 09:22:26;;;;;;;;;;;24.90;46.30;;;;;;1592014;73;1916;-59
2023/06/23 09:24:41;;;;;;;;;;;25.00;45.70;;;;;;1595497;73;1412;-59
2023/06/23 09:26:47;;;;;;;;;;;24.90;46.10;;;;;;1589867;73;724;-59
2023/06/23 09:28:49;;;;;;;;;;;25.00;45.90;;;;;;1603335;73;1128;-58
2023/06/23 09:30:52;;;;;;;;;;;25.00;45.90;;;;;;1595641;73;726;-60
2023/06/23 09:32:53;;;;;;;;;;;25.00;45.50;;;;;;1576485;73;708;-59
2023/06/23 09:34:55;;;;;;;;;;;25.00;45.10;;;;;;1601313;73;666;-60
2023/06/23 09:37:08;;;;;;;;;;;25.00;45.10;;;;;;1595639;73;1290;-58
2023/06/23 09:39:11;;;;;;;;;;;25.10;44.50;;;;;;1602952;73;1142;-59
2023/06/23 09:41:15;;;;;;;;;;;25.00;44.50;;;;;;1594312;73;2040;-60
2023/06/23 09:43:16;;;;;;;;;;;25.10;44.10;;;;;;1592728;73;1937;-61
2023/06/23 09:45:18;;;;;;;;;;;25.10;44.00;;;;;;1584239;73;782;-59
2023/06/23 09:47:20;;;;;;;;;;;25.20;43.10;;;;;;1590488;73;647;-59
2023/06/23 09:49:23;;;;;;;;;;;25.20;42.80;;;;;;1581381;73;1103;-59
2023/06/23 09:51:25;;;;;;;;;;;25.30;42.10;;;;;;1591709;73;1495;-59
2023/06/23 09:53:27;;;;;;;;;;;25.40;41.80;;;;;;1590829;73;683;-59
2023/06/23 09:55:32;;;;;;;;;;;25.20;42.40;;;;;;1571519;75;826;-60
2023/06/23 09:57:34;;;;;;;;;;;25.20;42.30;;;;;;1591211;73;775;-59
2023/06/23 09:59:37;;;;;;;;;;;25.20;42.70;;;;;;1581662;74;734;-59
2023/06/23 10:01:39;;;;;;;;;;;25.10;42.70;;;;;;1593448;73;1304;-59
2023/06/23 10:03:45;;;;;;;;;;;25.20;43.00;;;;;;1583855;73;1963;-60
2023/06/23 10:05:46;;;;;;;;;;;25.30;42.80;;;;;;1598907;73;1281;-59
2023/06/23 10:07:48;;;;;;;;;;;25.30;42.90;;;;;;1603197;73;1161;-60
2023/06/23 10:09:52;;;;;;;;;;;25.30;42.90;;;;;;1600547;73;759;-60
2023/06/23 10:11:54;;;;;;;;;;;25.20;42.80;;;;;;1592041;73;726;-59
2023/06/23 10:13:57;;;;;;;;;;;25.20;42.60;;;;;;1582604;73;765;-58
2023/06/23 10:15:59;;;;;;;;;;;25.10;42.80;;;;;;1591222;73;774;-59
2023/06/23 10:18:02;;;;;;;;;;;25.20;42.50;;;;;;1585380;73;1135;-59
2023/06/23 10:20:05;;;;;;;;;;;25.30;42.30;;;;;;1569599;73;1339;-60
2023/06/23 10:22:07;;;;;;;;;;;25.30;42.00;;;;;;1587043;73;810;-59
2023/06/23 10:24:10;;;;;;;;;;;25.20;42.40;;;;;;1598637;73;1897;-59
2023/06/23 10:26:12;;;;;;;;;;;25.20;42.70;;;;;;1593723;73;760;-60
2023/06/23 10:28:15;;;;;;;;;;;25.10;42.70;;;;;;1591617;73;1112;-60
2023/06/23 10:30:17;;;;;;;;;;;25.10;42.80;;;;;;1589104;73;793;-62
2023/06/23 10:32:24;;;;;;;;;;;25.10;43.00;;;;;;1600700;73;746;-59
2023/06/23 10:34:25;;;;;;;;;;;25.10;43.20;;;;;;1591894;73;1866;-60
2023/06/23 10:36:28;;;;;;;;;;;25.10;43.20;;;;;;1590145;73;667;-59
2023/06/23 10:38:30;;;;;;;;;;;25.10;43.20;;;;;;1585704;73;1131;-59
2023/06/23 10:40:43;;;;;;;;;;;25.10;42.80;;;;;;1599464;73;727;-60
2023/06/23 10:42:46;;;;;;;;;;;25.20;42.50;;;;;;1596337;73;1936;-59
2023/06/23 10:44:49;;;;;;;;;;;25.10;42.70;;;;;;1589361;72;1278;-60
2023/06/23 10:46:51;;;;;;;;;;;25.20;42.40;;;;;;1588570;72;1147;-60
2023/06/23 10:48:53;;;;;;;;;;;25.20;42.80;;;;;;1598603;72;1545;-59
2023/06/23 10:50:55;;;;;;;;;;;25.20;42.80;;;;;;1599154;72;1492;-60
2023/06/23 10:52:58;;;;;;;;;;;25.20;42.80;;;;;;1600214;72;1476;-60
2023/06/23 10:55:01;;;;;;;;;;;25.10;42.70;;;;;;1585856;72;1399;-61
2023/06/23 10:57:07;;;;;;;;;;;25.10;42.80;;;;;;1583192;72;1452;-60
2023/06/23 10:59:24;;;;;;;;;;;25.20;43.00;;;;;;1585794;73;1383;-59
2023/06/23 11:01:27;;;;;;;;;;;25.10;42.80;;;;;;1591183;73;1440;-59
2023/06/23 11:03:35;;;;;;;;;;;25.10;42.50;;;;;;1585849;73;1916;-59
2023/06/23 11:05:45;;;;;;;;;;;25.10;42.20;;;;;;1591958;73;1300;-59
2023/06/23 11:08:00;;;;;;;;;;;25.10;42.10;;;;;;1588967;73;1320;-59
2023/06/23 11:10:04;;;;;;;;;;;25.30;41.90;;;;;;1594332;73;1309;-62
2023/06/23 11:12:11;;;;;;;;;;;25.30;41.50;;;;;;1585652;73;1115;-61
2023/06/23 11:14:17;;;;;;;;;;;25.30;41.30;;;;;;1567262;73;1536;-61
2023/06/23 11:16:18;;;;;;;;;;;25.30;41.30;;;;;;1575619;73;1548;-61
2023/06/23 11:18:23;;;;;;;;;;;25.30;40.70;;;;;;1587797;73;1279;-60
2023/06/23 11:20:27;;;;;;;;;;;25.20;40.40;;;;;;1582182;73;1315;-60
2023/06/23 11:22:29;;;;;;;;;;;25.30;39.90;;;;;;1589361;73;1356;-59
2023/06/23 11:24:31;;;;;;;;;;;25.40;39.30;;;;;;1586946;73;1973;-61
2023/06/23 11:26:33;;;;;;;;;;;25.40;39.20;;;;;;1584205;73;1317;-59
2023/06/23 11:28:36;;;;;;;;;;;25.40;39.40;;;;;;1593241;73;1268;-60
2023/06/23 11:30:54;;;;;;;;;;;25.30;39.70;;;;;;1581957;73;1418;-60
2023/06/23 11:33:14;;;;;;;;;;;25.30;39.60;;;;;;1583337;73;1080;-60
2023/06/23 11:35:16;;;;;;;;;;;25.30;39.50;;;;;;1595093;73;1289;-60
2023/06/23 11:37:17;;;;;;;;;;;25.30;39.40;;;;;;1591172;73;1244;-61
2023/06/23 11:39:19;;;;;;;;;;;25.30;40.00;;;;;;1588882;73;1487;-60
2023/06/23 11:41:27;;;;;;;;;;;25.20;39.80;;;;;;1599261;73;1108;-59
2023/06/23 11:43:33;;;;;;;;;;;25.20;39.20;;;;;;1599369;73;1924;-61
2023/06/23 11:45:35;;;;;;;;;;;25.30;38.20;;;;;;1584556;73;1542;-61
2023/06/23 11:47:38;;;;;;;;;;;25.30;38.00;;;;;;1590712;73;1543;-61
2023/06/23 11:49:40;;;;;;;;;;;25.20;37.60;;;;;;1596104;73;1423;-61
2023/06/23 11:51:42;;;;;;;;;;;25.20;37.80;;;;;;1593429;73;1332;-61
2023/06/23 11:53:45;;;;;;;;;;;25.20;37.40;;;;;;1579455;73;1563;-58
2023/06/23 11:55:53;;;;;;;;;;;25.20;37.80;;;;;;1586452;73;1733;-61
2023/06/23 11:57:53;;;;;;;;;;;25.20;37.50;;;;;;1591285;73;1628;-60
2023/06/23 11:59:55;;;;;;;;;;;25.20;37.90;;;;;;1575526;73;1274;-61
2023/06/23 12:01:58;;;;;;;;;;;25.10;37.80;;;;;;1593950;73;708;-60
2023/06/23 12:04:00;;;;;;;;;;;25.30;37.80;;;;;;1582848;73;1934;-61
2023/06/23 12:06:02;;;;;;;;;;;25.40;37.60;;;;;;1580203;73;676;-60
2023/06/23 12:08:05;;;;;;;;;;;25.40;37.70;;;;;;1591037;73;1167;-61
2023/06/23 12:10:08;;;;;;;;;;;25.40;37.90;;;;;;1598149;73;711;-60